sensor_id;sensor_type;location;lat;lon;timestamp;P1;durP1;ratioP1;P2;durP2;ratioP2
10295;SDS011;5193;51.032;6.356;2022-09-20T00:00:47;7.13;;;2.60;;
10295;SDS011;5193;51.032;6.356;2022-09-20T00:03:14;8.13;;;2.33;;
10295;SDS011;5193;51.032;6.356;2022-09-20T00:05:41;4.47;;;2.50;;
10295;SDS011;5193;51.032;6.356;2022-09-20T00:08:10;7.80;;;3.13;;
10295;SDS011;5193;51.032;6.356;2022-09-20T00:10:38;5.37;;;2.60;;
10295;SDS011;5193;51.032;6.356;2022-09-20T00:13:04;6.37;;;2.30;;
10295;SDS011;5193;51.032;6.356;2022-09-20T00:15:31;6.47;;;2.70;;
10295;SDS011;5193;51.032;6.356;2022-09-20T00:17:57;7.40;;;2.23;;
10295;SDS011;5193;51.032;6.356;2022-09-20T00:20:24;9.10;;;2.77;;
10295;SDS011;5193;51.032;6.356;2022-09-20T00:22:50;6.17;;;2.37;;
10295;SDS011;5193;51.032;6.356;2022-09-20T00:25:16;5.73;;;2.50;;
10295;SDS011;5193;51.032;6.356;2022-09-20T00:27:42;4.80;;;2.10;;
10295;SDS011;5193;51.032;6.356;2022-09-20T00:30:08;6.03;;;2.23;;
10295;SDS011;5193;51.032;6.356;2022-09-20T00:32:34;5.67;;;2.30;;
10295;SDS011;5193;51.032;6.356;2022-09-20T00:35:00;7.33;;;2.40;;
10295;SDS011;5193;51.032;6.356;2022-09-20T00:37:32;6.70;;;2.10;;
10295;SDS011;5193;51.032;6.356;2022-09-20T00:39:59;7.27;;;2.20;;
10295;SDS011;5193;51.032;6.356;2022-09-20T00:42:26;7.10;;;2.10;;
10295;SDS011;5193;51.032;6.356;2022-09-20T00:44:58;6.03;;;2.37;;
10295;SDS011;5193;51.032;6.356;2022-09-20T00:53:11;5.40;;;2.10;;
10295;SDS011;5193;51.032;6.356;2022-09-20T00:55:54;8.53;;;2.10;;
10295;SDS011;5193;51.032;6.356;2022-09-20T00:58:24;3.83;;;1.93;;
10295;SDS011;5193;51.032;6.356;2022-09-20T01:00:53;6.03;;;1.77;;
10295;SDS011;5193;51.032;6.356;2022-09-20T01:03:20;7.30;;;2.10;;
10295;SDS011;5193;51.032;6.356;2022-09-20T01:05:47;10.73;;;2.40;;
10295;SDS011;5193;51.032;6.356;2022-09-20T01:08:15;6.20;;;2.33;;
10295;SDS011;5193;51.032;6.356;2022-09-20T01:10:42;3.73;;;2.13;;
10295;SDS011;5193;51.032;6.356;2022-09-20T01:13:07;3.37;;;1.57;;
10295;SDS011;5193;51.032;6.356;2022-09-20T01:15:33;6.23;;;2.03;;
10295;SDS011;5193;51.032;6.356;2022-09-20T01:18:01;8.53;;;2.37;;
10295;SDS011;5193;51.032;6.356;2022-09-20T01:20:30;7.33;;;1.90;;
10295;SDS011;5193;51.032;6.356;2022-09-20T01:31:59;5.83;;;1.90;;
10295;SDS011;5193;51.032;6.356;2022-09-20T01:34:34;3.30;;;1.80;;
10295;SDS011;5193;51.032;6.356;2022-09-20T01:37:10;7.00;;;2.00;;
10295;SDS011;5193;51.032;6.356;2022-09-20T01:43:10;4.27;;;1.80;;
10295;SDS011;5193;51.032;6.356;2022-09-20T01:45:52;4.10;;;1.50;;
10295;SDS011;5193;51.032;6.356;2022-09-20T01:48:27;4.00;;;1.70;;
10295;SDS011;5193;51.032;6.356;2022-09-20T02:00:24;7.60;;;1.97;;
10295;SDS011;5193;51.032;6.356;2022-09-20T02:02:35;5.67;;;2.00;;
10295;SDS011;5193;51.032;6.356;2022-09-20T02:13:28;10.43;;;1.80;;
10295;SDS011;5193;51.032;6.356;2022-09-20T02:21:33;5.50;;;1.70;;
10295;SDS011;5193;51.032;6.356;2022-09-20T02:24:23;5.73;;;1.47;;
10295;SDS011;5193;51.032;6.356;2022-09-20T02:32:37;3.83;;;1.47;;
10295;SDS011;5193;51.032;6.356;2022-09-20T02:35:29;5.00;;;1.57;;
10295;SDS011;5193;51.032;6.356;2022-09-20T02:46:36;8.63;;;2.00;;
10295;SDS011;5193;51.032;6.356;2022-09-20T02:49:07;6.77;;;1.50;;
10295;SDS011;5193;51.032;6.356;2022-09-20T02:51:56;5.70;;;1.50;;
10295;SDS011;5193;51.032;6.356;2022-09-20T02:57:20;3.43;;;1.47;;
10295;SDS011;5193;51.032;6.356;2022-09-20T03:00:19;5.13;;;1.77;;
10295;SDS011;5193;51.032;6.356;2022-09-20T03:06:03;6.73;;;1.73;;
10295;SDS011;5193;51.032;6.356;2022-09-20T03:14:23;6.70;;;1.90;;
10295;SDS011;5193;51.032;6.356;2022-09-20T03:17:16;5.13;;;1.47;;
10295;SDS011;5193;51.032;6.356;2022-09-20T03:20:05;9.37;;;1.60;;
10295;SDS011;5193;51.032;6.356;2022-09-20T03:22:59;3.80;;;1.50;;
10295;SDS011;5193;51.032;6.356;2022-09-20T03:28:37;4.50;;;1.60;;
10295;SDS011;5193;51.032;6.356;2022-09-20T03:58:25;7.40;;;1.90;;
10295;SDS011;5193;51.032;6.356;2022-09-20T04:26:46;8.77;;;2.70;;
10295;SDS011;5193;51.032;6.356;2022-09-20T04:29:46;7.40;;;2.33;;
10295;SDS011;5193;51.032;6.356;2022-09-20T04:32:37;9.20;;;2.43;;
10295;SDS011;5193;51.032;6.356;2022-09-20T04:38:25;7.77;;;2.77;;
10295;SDS011;5193;51.032;6.356;2022-09-20T04:49:53;8.07;;;3.23;;
10295;SDS011;5193;51.032;6.356;2022-09-20T04:55:45;11.23;;;3.23;;
10295;SDS011;5193;51.032;6.356;2022-09-20T05:15:34;7.50;;;3.23;;
10295;SDS011;5193;51.032;6.356;2022-09-20T05:18:18;10.30;;;3.80;;
10295;SDS011;5193;51.032;6.356;2022-09-20T05:23:49;6.83;;;3.30;;
10295;SDS011;5193;51.032;6.356;2022-09-20T05:26:32;6.13;;;2.93;;
10295;SDS011;5193;51.032;6.356;2022-09-20T05:29:11;6.50;;;3.43;;
10295;SDS011;5193;51.032;6.356;2022-09-20T05:37:50;7.53;;;3.70;;
10295;SDS011;5193;51.032;6.356;2022-09-20T05:43:48;8.93;;;4.53;;
10295;SDS011;5193;51.032;6.356;2022-09-20T05:46:36;9.03;;;4.57;;
10295;SDS011;5193;51.032;6.356;2022-09-20T05:52:06;9.87;;;4.23;;
10295;SDS011;5193;51.032;6.356;2022-09-20T05:54:43;13.37;;;4.10;;
10295;SDS011;5193;51.032;6.356;2022-09-20T06:00:09;7.40;;;3.90;;
10295;SDS011;5193;51.032;6.356;2022-09-20T06:05:31;10.30;;;4.37;;
10295;SDS011;5193;51.032;6.356;2022-09-20T06:10:44;13.07;;;4.70;;
10295;SDS011;5193;51.032;6.356;2022-09-20T06:15:58;7.83;;;4.10;;
10295;SDS011;5193;51.032;6.356;2022-09-20T06:21:29;13.67;;;4.53;;
10295;SDS011;5193;51.032;6.356;2022-09-20T06:24:08;10.53;;;4.20;;
10295;SDS011;5193;51.032;6.356;2022-09-20T06:26:49;8.33;;;3.80;;
10295;SDS011;5193;51.032;6.356;2022-09-20T06:29:25;7.43;;;3.73;;
10295;SDS011;5193;51.032;6.356;2022-09-20T06:31:57;7.50;;;3.77;;
10295;SDS011;5193;51.032;6.356;2022-09-20T06:34:23;7.37;;;3.70;;
10295;SDS011;5193;51.032;6.356;2022-09-20T06:36:53;5.37;;;3.27;;
10295;SDS011;5193;51.032;6.356;2022-09-20T06:40:23;7.07;;;3.50;;
10295;SDS011;5193;51.032;6.356;2022-09-20T06:43:29;7.47;;;3.40;;
10295;SDS011;5193;51.032;6.356;2022-09-20T06:45:55;14.83;;;4.60;;
10295;SDS011;5193;51.032;6.356;2022-09-20T06:48:21;10.53;;;4.07;;
10295;SDS011;5193;51.032;6.356;2022-09-20T06:50:49;5.97;;;3.40;;
10295;SDS011;5193;51.032;6.356;2022-09-20T06:53:17;12.53;;;4.37;;
10295;SDS011;5193;51.032;6.356;2022-09-20T06:55:45;5.60;;;3.93;;
10295;SDS011;5193;51.032;6.356;2022-09-20T06:58:11;7.33;;;4.00;;
10295;SDS011;5193;51.032;6.356;2022-09-20T07:00:37;14.13;;;4.33;;
10295;SDS011;5193;51.032;6.356;2022-09-20T07:03:04;8.17;;;4.30;;
10295;SDS011;5193;51.032;6.356;2022-09-20T07:05:30;10.40;;;4.20;;
10295;SDS011;5193;51.032;6.356;2022-09-20T07:07:56;10.33;;;4.73;;
10295;SDS011;5193;51.032;6.356;2022-09-20T07:10:23;9.87;;;4.23;;
10295;SDS011;5193;51.032;6.356;2022-09-20T07:12:54;10.50;;;4.10;;
10295;SDS011;5193;51.032;6.356;2022-09-20T07:15:25;10.23;;;4.33;;
10295;SDS011;5193;51.032;6.356;2022-09-20T07:17:55;9.07;;;4.37;;
10295;SDS011;5193;51.032;6.356;2022-09-20T07:20:21;10.57;;;4.47;;
10295;SDS011;5193;51.032;6.356;2022-09-20T07:22:47;8.40;;;4.00;;
10295;SDS011;5193;51.032;6.356;2022-09-20T07:25:13;9.53;;;3.63;;
10295;SDS011;5193;51.032;6.356;2022-09-20T07:27:39;7.13;;;3.50;;
10295;SDS011;5193;51.032;6.356;2022-09-20T07:30:05;8.00;;;3.73;;
10295;SDS011;5193;51.032;6.356;2022-09-20T07:32:32;9.30;;;3.67;;
10295;SDS011;5193;51.032;6.356;2022-09-20T07:34:57;7.00;;;3.40;;
10295;SDS011;5193;51.032;6.356;2022-09-20T07:37:23;5.93;;;3.77;;
10295;SDS011;5193;51.032;6.356;2022-09-20T07:39:49;10.33;;;4.00;;
10295;SDS011;5193;51.032;6.356;2022-09-20T07:42:14;11.23;;;3.97;;
10295;SDS011;5193;51.032;6.356;2022-09-20T07:44:40;10.53;;;3.87;;
10295;SDS011;5193;51.032;6.356;2022-09-20T07:47:06;8.63;;;3.77;;
10295;SDS011;5193;51.032;6.356;2022-09-20T07:49:34;11.57;;;3.80;;
10295;SDS011;5193;51.032;6.356;2022-09-20T07:52:00;7.63;;;3.47;;
10295;SDS011;5193;51.032;6.356;2022-09-20T07:54:26;9.67;;;3.57;;
10295;SDS011;5193;51.032;6.356;2022-09-20T07:56:52;10.37;;;3.57;;
10295;SDS011;5193;51.032;6.356;2022-09-20T07:59:18;7.47;;;3.20;;
10295;SDS011;5193;51.032;6.356;2022-09-20T08:01:43;8.57;;;3.17;;
10295;SDS011;5193;51.032;6.356;2022-09-20T08:04:09;8.43;;;2.90;;
10295;SDS011;5193;51.032;6.356;2022-09-20T08:06:36;4.93;;;2.80;;
10295;SDS011;5193;51.032;6.356;2022-09-20T08:09:03;10.10;;;3.40;;
10295;SDS011;5193;51.032;6.356;2022-09-20T08:11:29;6.30;;;2.47;;
10295;SDS011;5193;51.032;6.356;2022-09-20T08:13:55;7.80;;;2.50;;
10295;SDS011;5193;51.032;6.356;2022-09-20T08:16:23;5.43;;;2.27;;
10295;SDS011;5193;51.032;6.356;2022-09-20T08:18:54;6.17;;;2.67;;
10295;SDS011;5193;51.032;6.356;2022-09-20T08:21:22;10.47;;;3.07;;
10295;SDS011;5193;51.032;6.356;2022-09-20T08:23:48;7.20;;;3.03;;
10295;SDS011;5193;51.032;6.356;2022-09-20T08:26:23;7.30;;;2.60;;
10295;SDS011;5193;51.032;6.356;2022-09-20T08:28:51;7.03;;;2.57;;
10295;SDS011;5193;51.032;6.356;2022-09-20T08:31:21;9.60;;;2.73;;
10295;SDS011;5193;51.032;6.356;2022-09-20T08:33:49;4.00;;;2.00;;
10295;SDS011;5193;51.032;6.356;2022-09-20T08:36:19;6.20;;;2.23;;
10295;SDS011;5193;51.032;6.356;2022-09-20T08:38:50;10.17;;;2.13;;
10295;SDS011;5193;51.032;6.356;2022-09-20T08:41:38;8.10;;;2.50;;
10295;SDS011;5193;51.032;6.356;2022-09-20T08:49:41;6.03;;;2.30;;
10295;SDS011;5193;51.032;6.356;2022-09-20T08:52:07;4.03;;;2.17;;
10295;SDS011;5193;51.032;6.356;2022-09-20T08:54:38;7.33;;;1.93;;
10295;SDS011;5193;51.032;6.356;2022-09-20T08:57:05;13.13;;;2.37;;
10295;SDS011;5193;51.032;6.356;2022-09-20T08:59:39;5.20;;;1.90;;
10295;SDS011;5193;51.032;6.356;2022-09-20T09:02:07;4.80;;;1.63;;
10295;SDS011;5193;51.032;6.356;2022-09-20T09:04:42;8.87;;;2.07;;
10295;SDS011;5193;51.032;6.356;2022-09-20T09:07:09;6.73;;;2.03;;
10295;SDS011;5193;51.032;6.356;2022-09-20T09:09:38;3.40;;;1.63;;
10295;SDS011;5193;51.032;6.356;2022-09-20T09:12:13;6.07;;;1.80;;
10295;SDS011;5193;51.032;6.356;2022-09-20T09:14:47;5.00;;;1.30;;
10295;SDS011;5193;51.032;6.356;2022-09-20T09:19:57;4.73;;;1.40;;
10295;SDS011;5193;51.032;6.356;2022-09-20T09:22:46;3.00;;;1.17;;
10295;SDS011;5193;51.032;6.356;2022-09-20T09:25:28;4.30;;;1.27;;
10295;SDS011;5193;51.032;6.356;2022-09-20T09:30:31;6.90;;;1.20;;
10295;SDS011;5193;51.032;6.356;2022-09-20T09:33:43;6.53;;;1.40;;
10295;SDS011;5193;51.032;6.356;2022-09-20T09:38:28;2.37;;;1.37;;
10295;SDS011;5193;51.032;6.356;2022-09-20T09:43:28;2.73;;;1.60;;
10295;SDS011;5193;51.032;6.356;2022-09-20T09:46:16;4.73;;;2.27;;
10295;SDS011;5193;51.032;6.356;2022-09-20T09:48:48;4.33;;;1.60;;
10295;SDS011;5193;51.032;6.356;2022-09-20T09:54:31;6.53;;;2.10;;
10295;SDS011;5193;51.032;6.356;2022-09-20T10:02:36;4.50;;;1.50;;
10295;SDS011;5193;51.032;6.356;2022-09-20T10:05:15;5.97;;;1.87;;
10295;SDS011;5193;51.032;6.356;2022-09-20T10:18:43;5.80;;;1.07;;
10295;SDS011;5193;51.032;6.356;2022-09-20T10:24:05;4.07;;;1.03;;
10295;SDS011;5193;51.032;6.356;2022-09-20T10:30:16;4.43;;;1.20;;
10295;SDS011;5193;51.032;6.356;2022-09-20T10:38:29;3.33;;;1.17;;
10295;SDS011;5193;51.032;6.356;2022-09-20T10:49:27;5.50;;;1.20;;
10295;SDS011;5193;51.032;6.356;2022-09-20T10:52:40;3.50;;;0.90;;
10295;SDS011;5193;51.032;6.356;2022-09-20T10:57:45;3.40;;;1.00;;
10295;SDS011;5193;51.032;6.356;2022-09-20T11:09:28;5.53;;;1.33;;
10295;SDS011;5193;51.032;6.356;2022-09-20T11:12:16;4.93;;;1.20;;
10295;SDS011;5193;51.032;6.356;2022-09-20T11:14:51;3.13;;;1.17;;
10295;SDS011;5193;51.032;6.356;2022-09-20T11:17:29;3.23;;;0.93;;
10295;SDS011;5193;51.032;6.356;2022-09-20T11:22:40;4.80;;;1.40;;
10295;SDS011;5193;51.032;6.356;2022-09-20T11:25:19;3.17;;;0.97;;
10295;SDS011;5193;51.032;6.356;2022-09-20T11:30:45;2.97;;;0.83;;
10295;SDS011;5193;51.032;6.356;2022-09-20T11:36:02;6.03;;;0.97;;
10295;SDS011;5193;51.032;6.356;2022-09-20T11:38:52;2.70;;;0.80;;
10295;SDS011;5193;51.032;6.356;2022-09-20T11:41:25;3.20;;;1.00;;
10295;SDS011;5193;51.032;6.356;2022-09-20T11:43:52;3.97;;;0.90;;
10295;SDS011;5193;51.032;6.356;2022-09-20T11:46:28;3.80;;;0.80;;
10295;SDS011;5193;51.032;6.356;2022-09-20T11:49:02;4.13;;;0.80;;
10295;SDS011;5193;51.032;6.356;2022-09-20T11:57:00;3.20;;;1.07;;
10295;SDS011;5193;51.032;6.356;2022-09-20T11:59:37;2.97;;;1.03;;
10295;SDS011;5193;51.032;6.356;2022-09-20T12:05:26;3.50;;;1.03;;
10295;SDS011;5193;51.032;6.356;2022-09-20T12:07:52;4.50;;;1.13;;
10295;SDS011;5193;51.032;6.356;2022-09-20T12:12:58;3.17;;;0.90;;
10295;SDS011;5193;51.032;6.356;2022-09-20T12:15:28;2.30;;;0.97;;
10295;SDS011;5193;51.032;6.356;2022-09-20T12:28:33;11.10;;;4.57;;
10295;SDS011;5193;51.032;6.356;2022-09-20T12:33:54;10.13;;;4.70;;
10295;SDS011;5193;51.032;6.356;2022-09-20T12:36:23;14.57;;;7.57;;
10295;SDS011;5193;51.032;6.356;2022-09-20T12:39:24;11.43;;;5.93;;
10295;SDS011;5193;51.032;6.356;2022-09-20T12:47:05;3.57;;;1.50;;
10295;SDS011;5193;51.032;6.356;2022-09-20T12:49:41;3.40;;;1.80;;
10295;SDS011;5193;51.032;6.356;2022-09-20T13:00:37;3.67;;;1.63;;
10295;SDS011;5193;51.032;6.356;2022-09-20T13:19:23;4.80;;;1.77;;
10295;SDS011;5193;51.032;6.356;2022-09-20T13:22:18;3.63;;;1.57;;
10295;SDS011;5193;51.032;6.356;2022-09-20T13:24:58;5.77;;;1.53;;
10295;SDS011;5193;51.032;6.356;2022-09-20T13:27:29;5.87;;;1.47;;
10295;SDS011;5193;51.032;6.356;2022-09-20T13:30:20;4.70;;;1.70;;
10295;SDS011;5193;51.032;6.356;2022-09-20T13:32:49;6.27;;;1.40;;
10295;SDS011;5193;51.032;6.356;2022-09-20T13:35:19;3.70;;;1.57;;
10295;SDS011;5193;51.032;6.356;2022-09-20T13:43:03;3.73;;;1.10;;
10295;SDS011;5193;51.032;6.356;2022-09-20T13:45:47;2.97;;;1.00;;
10295;SDS011;5193;51.032;6.356;2022-09-20T13:48:22;6.50;;;1.13;;
10295;SDS011;5193;51.032;6.356;2022-09-20T13:50:49;4.67;;;1.20;;
10295;SDS011;5193;51.032;6.356;2022-09-20T13:53:16;4.00;;;1.00;;
10295;SDS011;5193;51.032;6.356;2022-09-20T13:55:42;4.60;;;1.13;;
10295;SDS011;5193;51.032;6.356;2022-09-20T14:00:59;4.67;;;1.00;;
10295;SDS011;5193;51.032;6.356;2022-09-20T14:03:28;3.70;;;1.00;;
10295;SDS011;5193;51.032;6.356;2022-09-20T14:06:00;3.07;;;0.90;;
10295;SDS011;5193;51.032;6.356;2022-09-20T14:08:35;3.57;;;0.90;;
10295;SDS011;5193;51.032;6.356;2022-09-20T14:13:45;6.67;;;1.50;;
10295;SDS011;5193;51.032;6.356;2022-09-20T14:16:13;3.17;;;0.97;;
10295;SDS011;5193;51.032;6.356;2022-09-20T14:18:40;2.83;;;0.80;;
10295;SDS011;5193;51.032;6.356;2022-09-20T14:21:07;6.63;;;0.80;;
10295;SDS011;5193;51.032;6.356;2022-09-20T14:23:54;4.10;;;1.00;;
10295;SDS011;5193;51.032;6.356;2022-09-20T14:26:25;3.50;;;1.00;;
10295;SDS011;5193;51.032;6.356;2022-09-20T14:28:58;2.97;;;0.80;;
10295;SDS011;5193;51.032;6.356;2022-09-20T14:31:52;2.37;;;0.87;;
10295;SDS011;5193;51.032;6.356;2022-09-20T14:34:19;2.10;;;0.57;;
10295;SDS011;5193;51.032;6.356;2022-09-20T14:36:45;3.03;;;0.93;;
10295;SDS011;5193;51.032;6.356;2022-09-20T14:39:15;6.93;;;0.97;;
10295;SDS011;5193;51.032;6.356;2022-09-20T14:41:45;4.10;;;0.80;;
10295;SDS011;5193;51.032;6.356;2022-09-20T14:44:26;4.33;;;0.80;;
10295;SDS011;5193;51.032;6.356;2022-09-20T14:46:57;2.57;;;0.73;;
10295;SDS011;5193;51.032;6.356;2022-09-20T14:51:49;4.47;;;0.70;;
10295;SDS011;5193;51.032;6.356;2022-09-20T14:54:23;2.13;;;0.60;;
10295;SDS011;5193;51.032;6.356;2022-09-20T14:56:51;2.53;;;0.60;;
10295;SDS011;5193;51.032;6.356;2022-09-20T15:04:27;1.10;;;0.50;;
10295;SDS011;5193;51.032;6.356;2022-09-20T15:06:55;1.70;;;0.80;;
10295;SDS011;5193;51.032;6.356;2022-09-20T15:09:25;3.33;;;0.80;;
10295;SDS011;5193;51.032;6.356;2022-09-20T15:12:24;1.70;;;0.57;;
10295;SDS011;5193;51.032;6.356;2022-09-20T15:14:43;1.93;;;1.13;;
10295;SDS011;5193;51.032;6.356;2022-09-20T15:17:14;3.83;;;0.60;;
10295;SDS011;5193;51.032;6.356;2022-09-20T15:19:41;3.73;;;0.80;;
10295;SDS011;5193;51.032;6.356;2022-09-20T15:22:09;0.40;;;0.40;;
10295;SDS011;5193;51.032;6.356;2022-09-20T15:24:38;1.77;;;0.50;;
10295;SDS011;5193;51.032;6.356;2022-09-20T15:27:04;6.33;;;0.73;;
10295;SDS011;5193;51.032;6.356;2022-09-20T15:29:29;1.93;;;0.60;;
10295;SDS011;5193;51.032;6.356;2022-09-20T15:31:55;2.77;;;0.60;;
10295;SDS011;5193;51.032;6.356;2022-09-20T15:34:21;3.57;;;1.00;;
10295;SDS011;5193;51.032;6.356;2022-09-20T15:36:47;4.03;;;0.60;;
10295;SDS011;5193;51.032;6.356;2022-09-20T15:39:13;2.13;;;0.70;;
10295;SDS011;5193;51.032;6.356;2022-09-20T15:41:39;2.80;;;0.60;;
10295;SDS011;5193;51.032;6.356;2022-09-20T15:44:05;3.50;;;0.83;;
10295;SDS011;5193;51.032;6.356;2022-09-20T15:46:31;4.93;;;0.70;;
10295;SDS011;5193;51.032;6.356;2022-09-20T15:48:58;2.73;;;0.80;;
10295;SDS011;5193;51.032;6.356;2022-09-20T15:51:24;4.33;;;1.00;;
10295;SDS011;5193;51.032;6.356;2022-09-20T15:53:58;2.83;;;0.63;;
10295;SDS011;5193;51.032;6.356;2022-09-20T15:56:26;4.03;;;1.00;;
10295;SDS011;5193;51.032;6.356;2022-09-20T15:59:00;1.40;;;0.67;;
10295;SDS011;5193;51.032;6.356;2022-09-20T16:01:31;3.67;;;1.20;;
10295;SDS011;5193;51.032;6.356;2022-09-20T16:04:03;4.27;;;0.90;;
10295;SDS011;5193;51.032;6.356;2022-09-20T16:06:33;6.90;;;1.33;;
10295;SDS011;5193;51.032;6.356;2022-09-20T16:08:59;3.43;;;0.90;;
10295;SDS011;5193;51.032;6.356;2022-09-20T16:11:25;3.43;;;0.77;;
10295;SDS011;5193;51.032;6.356;2022-09-20T16:13:55;5.10;;;0.70;;
10295;SDS011;5193;51.032;6.356;2022-09-20T16:16:22;2.93;;;0.73;;
10295;SDS011;5193;51.032;6.356;2022-09-20T16:18:49;4.90;;;1.10;;
10295;SDS011;5193;51.032;6.356;2022-09-20T16:21:33;4.90;;;1.03;;
10295;SDS011;5193;51.032;6.356;2022-09-20T16:24:00;3.27;;;0.80;;
10295;SDS011;5193;51.032;6.356;2022-09-20T16:26:26;5.77;;;0.77;;
10295;SDS011;5193;51.032;6.356;2022-09-20T16:28:53;6.30;;;0.90;;
10295;SDS011;5193;51.032;6.356;2022-09-20T16:31:32;4.00;;;1.00;;
10295;SDS011;5193;51.032;6.356;2022-09-20T16:34:15;2.23;;;0.67;;
10295;SDS011;5193;51.032;6.356;2022-09-20T16:36:52;2.60;;;1.00;;
10295;SDS011;5193;51.032;6.356;2022-09-20T16:39:20;2.30;;;0.80;;
10295;SDS011;5193;51.032;6.356;2022-09-20T16:41:50;5.63;;;1.30;;
10295;SDS011;5193;51.032;6.356;2022-09-20T16:44:17;4.37;;;1.23;;
10295;SDS011;5193;51.032;6.356;2022-09-20T16:46:42;2.93;;;0.90;;
10295;SDS011;5193;51.032;6.356;2022-09-20T16:49:09;2.63;;;1.30;;
10295;SDS011;5193;51.032;6.356;2022-09-20T16:51:37;3.17;;;1.00;;
10295;SDS011;5193;51.032;6.356;2022-09-20T16:54:13;4.30;;;1.00;;
10295;SDS011;5193;51.032;6.356;2022-09-20T16:56:41;2.73;;;1.20;;
10295;SDS011;5193;51.032;6.356;2022-09-20T16:59:09;3.00;;;1.00;;
10295;SDS011;5193;51.032;6.356;2022-09-20T17:01:36;3.03;;;1.23;;
10295;SDS011;5193;51.032;6.356;2022-09-20T17:04:03;2.20;;;0.93;;
10295;SDS011;5193;51.032;6.356;2022-09-20T17:06:30;2.63;;;1.20;;
10295;SDS011;5193;51.032;6.356;2022-09-20T17:08:58;7.00;;;2.13;;
10295;SDS011;5193;51.032;6.356;2022-09-20T17:11:25;6.53;;;2.30;;
10295;SDS011;5193;51.032;6.356;2022-09-20T17:13:52;4.30;;;1.50;;
10295;SDS011;5193;51.032;6.356;2022-09-20T17:16:20;5.03;;;1.70;;
10295;SDS011;5193;51.032;6.356;2022-09-20T17:18:55;4.03;;;1.50;;
10295;SDS011;5193;51.032;6.356;2022-09-20T17:21:22;3.73;;;1.30;;
10295;SDS011;5193;51.032;6.356;2022-09-20T17:23:49;4.80;;;1.23;;
10295;SDS011;5193;51.032;6.356;2022-09-20T17:26:25;2.17;;;1.10;;
10295;SDS011;5193;51.032;6.356;2022-09-20T17:28:55;4.70;;;1.23;;
10295;SDS011;5193;51.032;6.356;2022-09-20T17:31:24;2.67;;;1.00;;
10295;SDS011;5193;51.032;6.356;2022-09-20T17:33:54;4.33;;;0.97;;
10295;SDS011;5193;51.032;6.356;2022-09-20T17:36:23;2.87;;;0.97;;
10295;SDS011;5193;51.032;6.356;2022-09-20T17:38:52;2.70;;;0.90;;
10295;SDS011;5193;51.032;6.356;2022-09-20T17:41:20;4.43;;;1.20;;
10295;SDS011;5193;51.032;6.356;2022-09-20T17:43:46;5.43;;;1.50;;
10295;SDS011;5193;51.032;6.356;2022-09-20T17:46:17;7.70;;;1.33;;
10295;SDS011;5193;51.032;6.356;2022-09-20T17:48:53;5.37;;;1.10;;
10295;SDS011;5193;51.032;6.356;2022-09-20T17:51:21;6.27;;;2.50;;
10295;SDS011;5193;51.032;6.356;2022-09-20T17:53:48;4.70;;;2.63;;
10295;SDS011;5193;51.032;6.356;2022-09-20T17:56:14;9.13;;;4.40;;
10295;SDS011;5193;51.032;6.356;2022-09-20T17:58:40;21.20;;;8.40;;
10295;SDS011;5193;51.032;6.356;2022-09-20T18:01:07;10.20;;;5.07;;
10295;SDS011;5193;51.032;6.356;2022-09-20T18:03:39;6.33;;;2.67;;
10295;SDS011;5193;51.032;6.356;2022-09-20T18:06:16;4.47;;;1.70;;
10295;SDS011;5193;51.032;6.356;2022-09-20T18:08:51;9.27;;;2.10;;
10295;SDS011;5193;51.032;6.356;2022-09-20T18:11:19;4.67;;;1.43;;
10295;SDS011;5193;51.032;6.356;2022-09-20T18:13:46;5.73;;;1.90;;
10295;SDS011;5193;51.032;6.356;2022-09-20T18:16:13;4.27;;;1.30;;
10295;SDS011;5193;51.032;6.356;2022-09-20T18:18:41;3.60;;;1.50;;
10295;SDS011;5193;51.032;6.356;2022-09-20T18:23:40;6.03;;;2.03;;
10295;SDS011;5193;51.032;6.356;2022-09-20T18:26:07;6.60;;;2.20;;
10295;SDS011;5193;51.032;6.356;2022-09-20T18:31:29;4.57;;;1.60;;
10295;SDS011;5193;51.032;6.356;2022-09-20T18:33:58;6.63;;;2.97;;
10295;SDS011;5193;51.032;6.356;2022-09-20T18:36:28;8.77;;;3.80;;
10295;SDS011;5193;51.032;6.356;2022-09-20T18:38:55;5.47;;;2.13;;
10295;SDS011;5193;51.032;6.356;2022-09-20T18:41:22;5.63;;;1.60;;
10295;SDS011;5193;51.032;6.356;2022-09-20T18:43:50;3.67;;;1.60;;
10295;SDS011;5193;51.032;6.356;2022-09-20T18:46:16;3.73;;;1.50;;
10295;SDS011;5193;51.032;6.356;2022-09-20T18:48:49;4.40;;;1.70;;
10295;SDS011;5193;51.032;6.356;2022-09-20T18:51:15;3.50;;;1.43;;
10295;SDS011;5193;51.032;6.356;2022-09-20T18:53:41;3.23;;;1.40;;
10295;SDS011;5193;51.032;6.356;2022-09-20T18:56:26;3.17;;;1.90;;
10295;SDS011;5193;51.032;6.356;2022-09-20T19:06:46;3.87;;;1.47;;
10295;SDS011;5193;51.032;6.356;2022-09-20T19:09:23;8.60;;;3.17;;
10295;SDS011;5193;51.032;6.356;2022-09-20T19:12:03;3.93;;;1.97;;
10295;SDS011;5193;51.032;6.356;2022-09-20T19:14:58;3.90;;;2.10;;
10295;SDS011;5193;51.032;6.356;2022-09-20T19:21:02;3.80;;;1.90;;
10295;SDS011;5193;51.032;6.356;2022-09-20T19:23:35;4.80;;;2.17;;
10295;SDS011;5193;51.032;6.356;2022-09-20T19:26:25;3.67;;;2.47;;
10295;SDS011;5193;51.032;6.356;2022-09-20T19:28:53;5.00;;;2.00;;
10295;SDS011;5193;51.032;6.356;2022-09-20T19:33:54;8.17;;;2.33;;
10295;SDS011;5193;51.032;6.356;2022-09-20T19:36:25;3.97;;;1.80;;
10295;SDS011;5193;51.032;6.356;2022-09-20T19:39:15;8.83;;;1.90;;
10295;SDS011;5193;51.032;6.356;2022-09-20T19:52:52;4.23;;;2.03;;
10295;SDS011;5193;51.032;6.356;2022-09-20T19:55:20;4.70;;;2.80;;
10295;SDS011;5193;51.032;6.356;2022-09-20T19:57:46;4.43;;;2.70;;
10295;SDS011;5193;51.032;6.356;2022-09-20T20:00:13;3.93;;;2.23;;
10295;SDS011;5193;51.032;6.356;2022-09-20T20:02:41;4.47;;;1.93;;
10295;SDS011;5193;51.032;6.356;2022-09-20T20:05:17;2.87;;;1.90;;
10295;SDS011;5193;51.032;6.356;2022-09-20T20:07:46;4.63;;;2.10;;
10295;SDS011;5193;51.032;6.356;2022-09-20T20:12:45;3.17;;;1.80;;
10295;SDS011;5193;51.032;6.356;2022-09-20T20:15:23;3.73;;;1.90;;
10295;SDS011;5193;51.032;6.356;2022-09-20T20:18:09;3.10;;;2.03;;
10295;SDS011;5193;51.032;6.356;2022-09-20T20:20:49;6.63;;;2.27;;
10295;SDS011;5193;51.032;6.356;2022-09-20T20:23:26;6.57;;;2.97;;
10295;SDS011;5193;51.032;6.356;2022-09-20T20:26:24;9.10;;;2.43;;
10295;SDS011;5193;51.032;6.356;2022-09-20T20:28:51;7.73;;;2.30;;
10295;SDS011;5193;51.032;6.356;2022-09-20T20:31:17;4.57;;;2.60;;
10295;SDS011;5193;51.032;6.356;2022-09-20T20:33:43;4.73;;;2.43;;
10295;SDS011;5193;51.032;6.356;2022-09-20T20:36:09;4.77;;;2.33;;
10295;SDS011;5193;51.032;6.356;2022-09-20T20:38:36;5.20;;;2.37;;
10295;SDS011;5193;51.032;6.356;2022-09-20T20:41:04;5.80;;;2.33;;
10295;SDS011;5193;51.032;6.356;2022-09-20T20:43:32;6.67;;;2.50;;
10295;SDS011;5193;51.032;6.356;2022-09-20T20:45:59;2.93;;;1.87;;
10295;SDS011;5193;51.032;6.356;2022-09-20T20:48:25;5.33;;;2.47;;
10295;SDS011;5193;51.032;6.356;2022-09-20T20:50:58;5.93;;;2.40;;
10295;SDS011;5193;51.032;6.356;2022-09-20T20:53:29;3.37;;;1.97;;
10295;SDS011;5193;51.032;6.356;2022-09-20T20:56:06;5.27;;;2.50;;
10295;SDS011;5193;51.032;6.356;2022-09-20T20:58:34;3.97;;;2.47;;
10295;SDS011;5193;51.032;6.356;2022-09-20T21:01:12;4.73;;;2.80;;
10295;SDS011;5193;51.032;6.356;2022-09-20T21:03:40;11.17;;;2.83;;
10295;SDS011;5193;51.032;6.356;2022-09-20T21:06:08;5.77;;;2.67;;
10295;SDS011;5193;51.032;6.356;2022-09-20T21:08:41;3.67;;;2.40;;
10295;SDS011;5193;51.032;6.356;2022-09-20T21:11:16;4.43;;;2.80;;
10295;SDS011;5193;51.032;6.356;2022-09-20T21:13:45;6.23;;;2.60;;
10295;SDS011;5193;51.032;6.356;2022-09-20T21:16:15;3.53;;;2.50;;
10295;SDS011;5193;51.032;6.356;2022-09-20T21:18:42;7.83;;;3.00;;
10295;SDS011;5193;51.032;6.356;2022-09-20T21:21:14;9.27;;;3.20;;
10295;SDS011;5193;51.032;6.356;2022-09-20T21:23:44;4.27;;;2.37;;
10295;SDS011;5193;51.032;6.356;2022-09-20T21:26:11;4.63;;;2.30;;
10295;SDS011;5193;51.032;6.356;2022-09-20T21:28:40;4.63;;;2.07;;
10295;SDS011;5193;51.032;6.356;2022-09-20T21:31:07;9.63;;;2.77;;
10295;SDS011;5193;51.032;6.356;2022-09-20T21:33:34;4.30;;;2.40;;
10295;SDS011;5193;51.032;6.356;2022-09-20T21:36:02;4.10;;;2.50;;